Terminal Aerodrome Forecast
Issued by NWS

Home | Current Version | Previous Version | Text Only | Print | Product List | Glossary On
Versions: 1 2 3 4 5 6 7 8 9 10 11 12 13 14 15 16
000
FTUS41 KPHI 010800 AAA
TAFPNE
TAF AMD
KPNE 010809Z 0108/0206 04006KT P6SM FEW017 OVC026
      TEMPO 0109/0111 BKN015
     FM011100 03008KT P6SM BKN007 OVC012
     FM011400 03008KT P6SM BKN015
     FM011700 04008KT P6SM SCT015 BKN040
     FM020000 05006KT P6SM SCT015
     FM020500 04006KT 6SM BR SCT007=

USA.gov is the U.S. government's official web portal to all federal, state and local government web resources and services.